Search for airport 
image banner adimage banner adimage banner ad
image banner ad

5CA2 - Ord Mountain

Located in Barstow, United States

ICAO - 5CA2, IATA -

Data provided by Airmate  

General information

Coordinates: N34°40'32" W116°48'55"
Elevation is 6120 feet MSL.
Magnetic variation is 14° East
View others Airports in California

Operational data

Special qualification required
Current time UTC:
Current local time:
Weather at : KDAG - Barstow-Daggett ( 20 km )
METAR: KDAG 231450Z AUTO 27009KT 10SM BKN100 23/09 A2995 RMK AO2 SLP115 T02330089 53006 $
TAF: KDAG 231120Z 2312/2412 26012KT P6SM SCT250 FM231900 26008G16KT 6SM FU SCT250 FM240200 26012KT 5SM FU FEW250
View NOTAMs / SUP AIP / TFR affecting this airport [VIEW]
Communications frequencies: [VIEW]

Runways:

Airport contact information

Address: Barstow United States

Satellite view of 5CA2